createdAt,value
2018-05-08T00:00:25.640Z,101649.88
2018-05-08T00:02:54.294Z,101651.66
2018-05-08T00:05:23.388Z,101644.36
2018-05-08T00:07:51.696Z,101652.25
2018-05-08T00:10:20.080Z,101639.91
2018-05-08T00:12:48.403Z,101645.91
2018-05-08T00:15:16.748Z,101653.97
2018-05-08T00:17:45.393Z,101648.73
2018-05-08T00:20:14.482Z,101653.25
2018-05-08T00:22:43.582Z,101658.27
2018-05-08T00:25:12.695Z,101653.50
2018-05-08T00:27:41.027Z,101653.15
2018-05-08T00:30:09.377Z,101666.02
2018-05-08T00:32:37.723Z,101661.17
2018-05-08T00:35:06.059Z,101657.28
2018-05-08T00:37:34.374Z,101648.75
2018-05-08T00:40:03.618Z,101654.02
2018-05-08T00:42:31.922Z,101646.30
2018-05-08T00:45:00.245Z,101646.95
2018-05-08T00:47:28.687Z,101639.14
2018-05-08T00:49:57.040Z,101642.31
2018-05-08T00:52:25.449Z,101645.75
2018-05-08T00:55:07.122Z,101642.80
2018-05-08T00:57:35.543Z,101635.95
2018-05-08T01:00:04.677Z,101635.72
2018-05-08T01:02:33.072Z,101637.06
2018-05-08T01:05:01.916Z,101636.09
2018-05-08T01:07:30.142Z,101635.34
2018-05-08T01:09:58.596Z,101636.25
2018-05-08T01:12:26.944Z,101635.95
2018-05-08T01:14:55.279Z,101635.98
2018-05-08T01:17:24.038Z,101633.31
2018-05-08T01:19:52.350Z,101634.84
2018-05-08T01:22:20.682Z,101632.48
2018-05-08T01:24:49.035Z,101632.30
2018-05-08T01:27:17.376Z,101630.75
2018-05-08T01:29:45.733Z,101630.66
2018-05-08T01:32:14.127Z,101629.28
2018-05-08T01:34:43.199Z,101628.28
2018-05-08T01:37:11.508Z,101630.48
2018-05-08T01:39:40.677Z,101634.25
2018-05-08T01:42:08.974Z,101631.05
2018-05-08T01:44:38.076Z,101633.86
2018-05-08T01:47:06.440Z,101631.67
2018-05-08T01:49:34.733Z,101629.92
2018-05-08T01:52:03.815Z,101625.03
2018-05-08T01:54:32.169Z,101628.25
2018-05-08T01:57:00.506Z,101618.62
2018-05-08T01:59:29.727Z,101627.46
2018-05-08T02:01:58.448Z,101618.67
2018-05-08T02:04:26.769Z,101620.34
2018-05-08T02:06:55.115Z,101616.05
2018-05-08T02:09:23.463Z,101613.83
2018-05-08T02:11:51.810Z,101613.58
2018-05-08T02:14:20.147Z,101615.95
2018-05-08T02:16:48.475Z,101610.14
2018-05-08T02:19:16.795Z,101619.27
2018-05-08T02:21:45.152Z,101616.39
2018-05-08T02:24:13.996Z,101615.58
2018-05-08T02:26:42.325Z,101611.22
2018-05-08T02:29:10.633Z,101610.57
2018-05-08T02:31:38.962Z,101602.67
2018-05-08T02:34:07.268Z,101607.01
2018-05-08T02:36:35.607Z,101602.81
2018-05-08T02:39:03.948Z,101597.34
2018-05-08T02:41:33.047Z,101596.12
2018-05-08T02:44:02.145Z,101594.52
2018-05-08T02:46:30.903Z,101588.32
2018-05-08T02:48:59.219Z,101588.89
2018-05-08T02:51:28.298Z,101594.70
2018-05-08T02:53:56.645Z,101592.68
2018-05-08T02:56:25.042Z,101599.20
2018-05-08T02:58:53.407Z,101587.44
2018-05-08T03:01:21.731Z,101591.69
2018-05-08T03:03:50.814Z,101598.89
2018-05-08T03:06:19.123Z,101591.81
2018-05-08T03:08:48.555Z,101598.73
2018-05-08T03:11:16.890Z,101593.90
2018-05-08T03:13:45.974Z,101593.74
2018-05-08T03:16:14.345Z,101597.14
2018-05-08T03:18:42.654Z,101597.89
2018-05-08T03:21:10.961Z,101598.22
2018-05-08T03:23:39.286Z,101602.64
2018-05-08T03:26:07.607Z,101601.62
2018-05-08T03:28:35.919Z,101600.31
2018-05-08T03:31:04.591Z,101592.89
2018-05-08T03:33:32.905Z,101591.30
2018-05-08T03:36:01.218Z,101591.45
2018-05-08T03:38:29.573Z,101587.91
2018-05-08T03:40:58.682Z,101587.95
2018-05-08T03:43:26.995Z,101585.50
2018-05-08T03:45:55.361Z,101582.06
2018-05-08T03:48:23.688Z,101589.97
2018-05-08T03:50:52.018Z,101589.94
2018-05-08T03:53:20.679Z,101581.91
2018-05-08T03:55:49.755Z,101576.05
2018-05-08T03:58:18.063Z,101581.86
2018-05-08T04:01:03.898Z,101588.94
2018-05-08T04:03:49.841Z,101584.05
2018-05-08T04:06:37.341Z,101584.08
2018-05-08T04:09:05.647Z,101578.55
2018-05-08T04:11:34.744Z,101576.61
2018-05-08T04:14:04.240Z,101573.02
2018-05-08T04:16:33.317Z,101577.86
2018-05-08T04:19:01.612Z,101577.69
2018-05-08T04:21:30.719Z,101575.63
2018-05-08T04:23:59.084Z,101582.09
2018-05-08T04:26:27.407Z,101580.55
2018-05-08T04:28:55.819Z,101577.42
2018-05-08T04:31:24.166Z,101573.43
2018-05-08T04:33:52.514Z,101575.37
2018-05-08T04:36:20.968Z,101576.03
2018-05-08T04:38:49.325Z,101570.05
2018-05-08T04:41:17.694Z,101561.89
2018-05-08T04:43:46.919Z,101564.48
2018-05-08T04:46:15.226Z,101563.59
2018-05-08T04:48:43.559Z,101563.69
2018-05-08T04:51:11.939Z,101563.78
2018-05-08T04:53:40.321Z,101557.45
2018-05-08T04:56:08.695Z,101557.20
2018-05-08T04:58:38.019Z,101560.59
2018-05-08T05:01:06.398Z,101553.13
2018-05-08T05:03:34.782Z,101557.59
2018-05-08T05:06:03.268Z,101559.04
2018-05-08T05:08:31.715Z,101561.11
2018-05-08T05:11:00.159Z,101560.83
2018-05-08T05:13:28.550Z,101554.89
2018-05-08T05:15:56.898Z,101558.56
2018-05-08T05:18:26.008Z,101555.23
2018-05-08T05:20:55.859Z,101547.89
2018-05-08T05:23:24.235Z,101542.81
2018-05-08T05:25:52.557Z,101544.31
2018-05-08T05:28:21.030Z,101544.58
2018-05-08T05:30:49.413Z,101546.73
2018-05-08T05:33:17.713Z,101549.11
2018-05-08T05:35:46.805Z,101539.97
2018-05-08T05:38:16.056Z,101543.27
2018-05-08T05:40:44.450Z,101547.16
2018-05-08T05:43:13.181Z,101543.88
2018-05-08T05:45:42.345Z,101548.49
2018-05-08T05:48:10.692Z,101540.16
2018-05-08T05:50:39.159Z,101543.71
2018-05-08T05:53:07.474Z,101544.78
2018-05-08T05:55:35.807Z,101537.45
2018-05-08T05:58:04.172Z,101544.95
2018-05-08T06:00:33.235Z,101529.56
2018-05-08T06:03:01.554Z,101531.55
2018-05-08T06:05:30.356Z,101532.03
2018-05-08T06:07:58.688Z,101527.98
2018-05-08T06:10:27.001Z,101532.00
2018-05-08T06:12:55.355Z,101524.22
2018-05-08T06:15:23.676Z,101529.70
2018-05-08T06:17:52.037Z,101528.25
2018-05-08T06:20:20.371Z,101531.84
2018-05-08T06:22:48.688Z,101522.61
2018-05-08T06:25:17.780Z,101517.17
2018-05-08T06:27:47.088Z,101524.50
2018-05-08T06:30:15.395Z,101519.09
2018-05-08T06:32:43.742Z,101512.69
2018-05-08T06:35:12.878Z,101507.80
2018-05-08T06:37:41.221Z,101506.65
2018-05-08T06:40:09.645Z,101509.73
2018-05-08T06:42:37.913Z,101511.63
2018-05-08T06:45:06.225Z,101502.00
2018-05-08T06:47:34.570Z,101506.25
2018-05-08T06:50:03.449Z,101500.50
2018-05-08T06:52:31.787Z,101503.19
2018-05-08T06:55:00.978Z,101496.91
2018-05-08T06:57:29.998Z,101503.31
2018-05-08T06:59:59.098Z,101487.02
2018-05-08T07:02:27.388Z,101491.99
2018-05-08T07:04:55.734Z,101491.77
2018-05-08T07:07:24.840Z,101488.75
2018-05-08T07:09:53.908Z,101485.89
2018-05-08T07:12:22.524Z,101494.00
2018-05-08T07:14:51.624Z,101487.70
2018-05-08T07:17:20.723Z,101484.30
2018-05-08T07:19:49.095Z,101484.70
2018-05-08T07:22:18.192Z,101487.55
2018-05-08T07:24:46.540Z,101482.94
2018-05-08T07:27:14.891Z,101481.66
2018-05-08T07:29:43.232Z,101484.38
2018-05-08T07:32:11.551Z,101481.42
2018-05-08T07:34:39.990Z,101478.28
2018-05-08T07:37:09.077Z,101479.76
2018-05-08T07:39:38.182Z,101480.91
2018-05-08T07:42:07.319Z,101475.61
2018-05-08T07:44:36.405Z,101474.65
2018-05-08T07:47:04.876Z,101473.69
2018-05-08T07:49:33.228Z,101466.59
2018-05-08T07:52:02.301Z,101475.72
2018-05-08T07:54:30.644Z,101469.47
2018-05-08T07:56:59.151Z,101477.64
2018-05-08T07:59:27.450Z,101475.84
2018-05-08T08:01:55.767Z,101470.85
2018-05-08T08:04:24.095Z,101476.77
2018-05-08T08:06:52.438Z,101477.41
2018-05-08T08:09:20.795Z,101472.29
2018-05-08T08:11:49.155Z,101467.89
2018-05-08T08:14:18.251Z,101466.17
2018-05-08T08:16:47.344Z,101464.91
2018-05-08T08:19:16.704Z,101470.11
2018-05-08T08:21:45.014Z,101470.13
2018-05-08T08:24:13.317Z,101466.61
2018-05-08T08:26:41.654Z,101464.59
2018-05-08T08:29:09.972Z,101464.89
2018-05-08T08:31:38.295Z,101466.44
2018-05-08T08:34:06.649Z,101470.63
2018-05-08T08:36:34.956Z,101459.70
2018-05-08T08:39:03.275Z,101466.34
2018-05-08T08:41:32.478Z,101451.32
2018-05-08T08:44:01.622Z,101455.59
2018-05-08T08:46:30.066Z,101454.42
2018-05-08T08:48:58.330Z,101445.50
2018-05-08T08:51:26.702Z,101437.45
2018-05-08T08:53:55.067Z,101446.17
2018-05-08T08:56:23.720Z,101446.05
2018-05-08T08:58:52.040Z,101432.20
2018-05-08T09:01:20.367Z,101433.38
2018-05-08T09:03:48.950Z,101438.88
2018-05-08T09:06:17.276Z,101433.22
2018-05-08T09:08:45.817Z,101444.84
2018-05-08T09:11:14.248Z,101435.17
2018-05-08T09:13:42.547Z,101423.89
2018-05-08T09:16:11.639Z,101424.13
2018-05-08T09:18:40.016Z,101430.80
2018-05-08T09:21:09.112Z,101422.78
2018-05-08T09:23:38.198Z,101416.31
2018-05-08T09:26:07.510Z,101418.06
2018-05-08T09:28:37.490Z,101418.97
2018-05-08T09:31:05.793Z,101420.65
2018-05-08T09:33:34.139Z,101405.45
2018-05-08T09:36:02.445Z,101415.17
2018-05-08T09:38:30.748Z,101403.37
2018-05-08T09:40:59.130Z,101401.77
2018-05-08T09:43:27.448Z,101406.47
2018-05-08T09:45:55.776Z,101390.11
2018-05-08T09:48:24.411Z,101388.14
2018-05-08T09:50:52.786Z,101396.67
2018-05-08T09:53:21.823Z,101382.12
2018-05-08T09:55:50.943Z,101379.97
2018-05-08T09:58:19.259Z,101394.25
2018-05-08T10:00:47.569Z,101370.62
2018-05-08T10:03:15.919Z,101375.42
2018-05-08T10:05:44.224Z,101364.52
2018-05-08T10:08:13.326Z,101376.59
2018-05-08T10:10:42.647Z,101362.17
2018-05-08T10:13:11.759Z,101361.91
2018-05-08T10:15:41.034Z,101372.14
2018-05-08T10:18:10.179Z,101354.29
2018-05-08T10:20:39.392Z,101352.81
2018-05-08T10:23:07.679Z,101347.38
2018-05-08T10:25:36.041Z,101367.30
2018-05-08T10:28:04.345Z,101348.73
2018-05-08T10:30:32.663Z,101339.69
2018-05-08T10:33:01.380Z,101334.64
2018-05-08T10:35:30.414Z,101332.49
2018-05-08T10:37:58.787Z,101342.35
2018-05-08T10:40:27.163Z,101331.93
2018-05-08T10:42:55.516Z,101354.66
2018-05-08T10:45:23.837Z,101335.31
2018-05-08T10:47:52.977Z,101317.91
2018-05-08T10:50:21.293Z,101316.21
2018-05-08T10:52:49.648Z,101318.23
2018-05-08T10:55:18.505Z,101308.70
2018-05-08T10:57:46.822Z,101292.44
2018-05-08T11:00:15.131Z,101316.89
2018-05-08T11:02:43.496Z,101312.17
2018-05-08T11:05:11.804Z,101289.48
2018-05-08T11:07:40.122Z,101281.69
2018-05-08T11:10:08.500Z,101277.02
2018-05-08T11:12:36.830Z,101282.96
2018-05-08T11:15:05.911Z,101272.73
2018-05-08T11:17:34.662Z,101271.45
2018-05-08T11:20:02.986Z,101273.56
2018-05-08T11:22:32.071Z,101252.50
2018-05-08T11:25:00.410Z,101267.05
2018-05-08T11:27:28.708Z,101267.73
2018-05-08T11:29:57.101Z,101257.14
2018-05-08T11:32:25.488Z,101248.53
2018-05-08T11:34:53.867Z,101257.07
2018-05-08T11:37:22.204Z,101251.65
2018-05-08T11:39:50.741Z,101248.65
2018-05-08T11:42:19.840Z,101243.66
2018-05-08T11:44:48.201Z,101246.00
2018-05-08T11:47:16.528Z,101231.91
2018-05-08T11:49:44.855Z,101225.94
2018-05-08T11:52:13.213Z,101236.17
2018-05-08T11:54:41.570Z,101228.54
2018-05-08T11:57:09.930Z,101221.27
2018-05-08T11:59:38.262Z,101228.94
2018-05-08T12:02:06.810Z,101205.93
2018-05-08T12:04:35.139Z,101213.97
2018-05-08T12:07:03.500Z,101211.02
2018-05-08T12:09:31.841Z,101208.20
2018-05-08T12:12:00.148Z,101198.76
2018-05-08T12:14:28.477Z,101199.73
2018-05-08T12:16:56.827Z,101204.33
2018-05-08T12:19:25.135Z,101199.96
2018-05-08T12:21:54.246Z,101207.86
2018-05-08T12:24:23.470Z,101180.52
2018-05-08T12:26:51.821Z,101181.38
2018-05-08T12:29:20.125Z,101184.12
2018-05-08T12:31:48.502Z,101181.64
2018-05-08T12:34:16.812Z,101168.55
2018-05-08T12:36:45.178Z,101163.16
2018-05-08T12:39:13.531Z,101166.66
2018-05-08T12:41:41.876Z,101157.30
2018-05-08T12:44:10.964Z,101147.25
2018-05-08T12:46:40.338Z,101160.91
2018-05-08T12:49:08.647Z,101154.36
2018-05-08T12:51:37.752Z,101144.19
2018-05-08T12:54:06.077Z,101164.88
2018-05-08T12:56:34.392Z,101154.97
2018-05-08T12:59:02.756Z,101153.31
2018-05-08T13:01:31.082Z,101156.70
2018-05-08T13:03:59.432Z,101151.35
2018-05-08T13:06:27.793Z,101148.93
2018-05-08T13:08:56.515Z,101144.34
2018-05-08T13:11:24.833Z,101129.48
2018-05-08T13:13:53.164Z,101126.06
2018-05-08T13:16:22.311Z,101160.78
2018-05-08T13:18:51.389Z,101135.22
2018-05-08T13:21:19.715Z,101120.97
2018-05-08T13:23:48.067Z,101119.39
2018-05-08T13:26:16.414Z,101117.61
2018-05-08T13:28:44.762Z,101125.00
2018-05-08T13:31:13.474Z,101121.70
2018-05-08T13:33:41.596Z,101120.23
2018-05-08T13:36:09.919Z,101111.28
2018-05-08T13:38:39.064Z,101105.06
2018-05-08T13:41:07.367Z,101094.62
2018-05-08T13:43:35.683Z,101106.38
2018-05-08T13:46:04.061Z,101106.69
2018-05-08T13:48:32.397Z,101102.11
2018-05-08T13:51:00.746Z,101096.78
2018-05-08T13:53:29.300Z,101087.35
2018-05-08T13:55:57.624Z,101089.73
2018-05-08T13:58:25.962Z,101109.58
2018-05-08T14:00:54.351Z,101086.27
2018-05-08T14:03:23.406Z,101075.66
2018-05-08T14:05:51.713Z,101068.91
2018-05-08T14:08:20.819Z,101079.02
2018-05-08T14:10:49.137Z,101079.09
2018-05-08T14:13:17.443Z,101070.80
2018-05-08T14:15:46.218Z,101070.50
2018-05-08T14:18:14.523Z,101064.64
2018-05-08T14:20:43.639Z,101056.30
2018-05-08T14:23:12.030Z,101069.45
2018-05-08T14:25:40.370Z,101057.41
2018-05-08T14:28:09.495Z,101044.78
2018-05-08T14:30:37.867Z,101044.17
2018-05-08T14:33:06.186Z,101038.66
2018-05-08T14:35:34.515Z,101038.28
2018-05-08T14:38:03.867Z,101043.38
2018-05-08T14:40:32.199Z,101043.69
2018-05-08T14:43:00.544Z,101035.58
2018-05-08T14:45:28.892Z,101054.09
2018-05-08T14:47:57.212Z,101022.06
2018-05-08T14:50:25.528Z,101016.61
2018-05-08T14:52:53.898Z,101020.84
2018-05-08T14:55:22.201Z,101024.04
2018-05-08T14:57:50.530Z,101015.80
2018-05-08T15:00:19.061Z,101021.66
2018-05-08T15:02:47.398Z,101022.80
2018-05-08T15:05:16.472Z,101024.91
2018-05-08T15:07:44.824Z,101010.65
2018-05-08T15:10:13.164Z,101005.11
2018-05-08T15:12:41.458Z,101007.76
2018-05-08T15:15:09.821Z,101006.09
2018-05-08T15:17:38.914Z,101006.52
2018-05-08T15:20:07.992Z,101008.37
2018-05-08T15:22:37.595Z,101002.25
2018-05-08T15:25:05.896Z,100995.59
2018-05-08T15:27:34.270Z,101009.89
2018-05-08T15:30:02.633Z,101010.62
2018-05-08T15:32:30.949Z,101011.20
2018-05-08T15:34:59.281Z,100994.73
2018-05-08T15:37:27.684Z,100987.16
2018-05-08T15:39:56.010Z,100980.84
2018-05-08T15:42:24.349Z,100986.95
2018-05-08T15:44:53.160Z,100993.13
2018-05-08T15:47:21.509Z,100980.56
2018-05-08T15:49:49.788Z,100986.08
2018-05-08T15:52:18.875Z,100982.31
2018-05-08T15:54:47.963Z,100970.49
2018-05-08T15:57:16.279Z,100973.74
2018-05-08T15:59:44.624Z,100979.16
2018-05-08T16:02:13.037Z,100987.08
2018-05-08T16:04:41.320Z,100981.27
2018-05-08T16:07:10.071Z,100969.06
2018-05-08T16:09:39.202Z,100963.38
2018-05-08T16:12:07.549Z,100951.69
2018-05-08T16:14:36.691Z,100951.83
2018-05-08T16:17:05.020Z,100952.43
2018-05-08T16:19:34.102Z,100945.47
2018-05-08T16:22:02.538Z,100950.65
2018-05-08T16:24:30.870Z,100950.87
2018-05-08T16:26:59.196Z,100943.62
2018-05-08T16:29:27.919Z,100940.05
2018-05-08T16:31:56.251Z,100940.47
2018-05-08T16:34:24.560Z,100942.66
2018-05-08T16:36:52.898Z,100949.00
2018-05-08T16:39:21.296Z,100950.20
2018-05-08T16:41:49.560Z,100940.41
2018-05-08T16:44:17.934Z,100947.77
2018-05-08T16:46:46.248Z,100944.75
2018-05-08T16:49:14.592Z,100943.91
2018-05-08T16:51:43.866Z,100953.70
2018-05-08T16:54:12.159Z,100938.23
2018-05-08T16:56:41.276Z,100940.56
2018-05-08T16:59:09.631Z,100942.53
2018-05-08T17:01:37.974Z,100941.00
2018-05-08T17:04:06.284Z,100934.45
2018-05-08T17:06:35.232Z,100935.59
2018-05-08T17:09:03.601Z,100932.23
2018-05-08T17:11:31.953Z,100940.00
2018-05-08T17:14:00.600Z,100936.59
2018-05-08T17:16:28.904Z,100935.25
2018-05-08T17:18:57.990Z,100933.78
2018-05-08T17:21:26.381Z,100922.80
2018-05-08T17:23:54.717Z,100926.34
2018-05-08T17:26:23.082Z,100924.68
2018-05-08T17:28:51.449Z,100921.63
2018-05-08T17:31:19.767Z,100920.37
2018-05-08T17:33:48.136Z,100925.86
2018-05-08T17:36:16.969Z,100913.48
2018-05-08T17:38:45.314Z,100922.64
2018-05-08T17:41:13.659Z,100923.91
2018-05-08T17:43:42.025Z,100922.55
2018-05-08T17:46:10.365Z,100918.71
2018-05-08T17:48:38.709Z,100924.58
2018-05-08T17:51:07.106Z,100925.06
2018-05-08T17:53:35.491Z,100921.08
2018-05-08T17:56:03.809Z,100920.81
2018-05-08T17:58:32.385Z,100922.75
2018-05-08T18:01:00.747Z,100921.34
2018-05-08T18:03:29.049Z,100933.09
2018-05-08T18:05:58.160Z,100928.20
2018-05-08T18:08:26.483Z,100927.07
2018-05-08T18:10:54.830Z,100933.16
2018-05-08T18:13:23.180Z,100926.95
2018-05-08T18:15:52.261Z,100925.68
2018-05-08T18:18:20.620Z,100917.73
2018-05-08T18:20:49.839Z,100919.66
2018-05-08T18:23:18.923Z,100916.62
2018-05-08T18:25:47.256Z,100916.48
2018-05-08T18:28:15.638Z,100917.75
2018-05-08T18:30:43.991Z,100909.00
2018-05-08T18:33:13.098Z,100912.69
2018-05-08T18:35:41.450Z,100910.48
2018-05-08T18:38:09.792Z,100913.45
2018-05-08T18:40:38.139Z,100913.34
2018-05-08T18:43:06.895Z,100914.48
2018-05-08T18:45:35.213Z,100909.13
2018-05-08T18:48:03.563Z,100912.63
2018-05-08T18:50:31.901Z,100917.58
2018-05-08T18:53:00.269Z,100922.47
2018-05-08T18:55:28.580Z,100921.27
2018-05-08T18:57:56.962Z,100922.92
2018-05-08T19:00:25.285Z,100920.04
2018-05-08T19:02:53.614Z,100922.88
2018-05-08T19:05:22.416Z,100922.81
2018-05-08T19:07:50.733Z,100926.45
2018-05-08T19:10:22.029Z,100931.03
2018-05-08T19:12:50.504Z,100933.67
2018-05-08T19:15:26.529Z,100929.31
2018-05-08T19:17:54.963Z,100937.63
2018-05-08T19:20:24.065Z,100940.25
2018-05-08T19:22:53.286Z,100939.77
2018-05-08T19:25:21.836Z,100942.13
2018-05-08T19:27:50.192Z,100941.06
2018-05-08T19:30:24.030Z,100938.75
2018-05-08T19:32:52.395Z,100945.08
2018-05-08T19:35:26.284Z,100945.22
2018-05-08T19:38:00.305Z,100934.17
2018-05-08T19:40:28.835Z,100933.21
2018-05-08T19:42:57.158Z,100935.06
2018-05-08T19:45:25.500Z,100931.49
2018-05-08T19:47:53.871Z,100931.45
2018-05-08T19:50:22.225Z,100931.63
2018-05-08T19:52:51.418Z,100935.15
2018-05-08T19:55:19.778Z,100933.70
2018-05-08T19:57:48.192Z,100933.61
2018-05-08T20:00:16.476Z,100931.86
2018-05-08T20:02:44.961Z,100929.05
2018-05-08T20:05:13.392Z,100943.27
2018-05-08T20:07:41.863Z,100937.33
2018-05-08T20:10:10.403Z,100937.25
2018-05-08T20:12:38.849Z,100932.36
2018-05-08T20:15:07.174Z,100935.08
2018-05-08T20:17:35.529Z,100934.51
2018-05-08T20:20:04.611Z,100933.57
2018-05-08T20:22:34.104Z,100934.60
2018-05-08T20:25:02.919Z,100934.01
2018-05-08T20:27:32.042Z,100932.72
2018-05-08T20:30:00.758Z,100936.08
2018-05-08T20:32:29.125Z,100934.47
2018-05-08T20:34:57.454Z,100933.48
2018-05-08T20:37:25.810Z,100931.97
2018-05-08T20:39:54.960Z,100943.39
2018-05-08T20:42:23.375Z,100937.54
2018-05-08T20:44:51.685Z,100935.70
2018-05-08T20:47:20.469Z,100942.19
2018-05-08T20:49:48.789Z,100934.00
2018-05-08T20:52:17.165Z,100933.64
2018-05-08T20:54:46.278Z,100932.80
2018-05-08T20:57:14.605Z,100931.42
2018-05-08T20:59:42.945Z,100935.16
2018-05-08T21:02:15.314Z,100937.49
2018-05-08T21:04:43.629Z,100938.45
2018-05-08T21:07:11.994Z,100939.89
2018-05-08T21:09:40.600Z,100940.62
2018-05-08T21:12:08.950Z,100945.06
2018-05-08T21:14:37.284Z,100943.92
2018-05-08T21:17:05.661Z,100945.29
2018-05-08T21:19:34.794Z,100944.02
2018-05-08T21:22:03.122Z,100948.52
2018-05-08T21:24:31.459Z,100944.30
2018-05-08T21:26:59.780Z,100941.72
2018-05-08T21:29:34.127Z,100939.44
2018-05-08T21:32:02.472Z,100943.94
2018-05-08T21:34:30.804Z,100938.44
2018-05-08T21:36:59.197Z,100942.41
2018-05-08T21:39:27.522Z,100938.55
2018-05-08T21:41:56.621Z,100939.73
2018-05-08T21:44:25.754Z,100943.42
2018-05-08T21:46:55.259Z,100947.39
2018-05-08T21:49:23.588Z,100946.77
2018-05-08T21:51:52.299Z,100952.96
2018-05-08T21:54:20.612Z,100948.45
2018-05-08T21:56:48.926Z,100955.16
2018-05-08T21:59:17.272Z,100939.34
2018-05-08T22:01:45.577Z,100939.22
2018-05-08T22:04:13.968Z,100940.20
2018-05-08T22:06:42.305Z,100943.77
2018-05-08T22:09:10.627Z,100943.86
2018-05-08T22:11:39.055Z,100944.84
2018-05-08T22:14:07.609Z,100948.23
2018-05-08T22:16:35.932Z,100943.56
2018-05-08T22:19:04.275Z,100942.37
2018-05-08T22:21:32.654Z,100941.95
2018-05-08T22:24:01.012Z,100945.39
2018-05-08T22:26:30.128Z,100951.80
2018-05-08T22:28:58.481Z,100953.52
2018-05-08T22:31:26.791Z,100953.64
2018-05-08T22:33:55.133Z,100948.78
2018-05-08T22:36:23.640Z,100950.17
2018-05-08T22:38:52.749Z,100944.74
2018-05-08T22:41:21.099Z,100948.85
2018-05-08T22:43:49.463Z,100943.84
2018-05-08T22:46:17.768Z,100939.80
2018-05-08T22:48:46.867Z,100943.03
2018-05-08T22:51:16.011Z,100939.70
2018-05-08T22:53:44.317Z,100935.64
2018-05-08T22:56:12.696Z,100937.80
2018-05-08T22:58:42.229Z,100936.34
2018-05-08T23:01:11.313Z,100931.67
2018-05-08T23:03:40.413Z,100930.88
2018-05-08T23:06:09.514Z,100929.48
2018-05-08T23:08:38.589Z,100929.52
2018-05-08T23:11:06.900Z,100926.30
2018-05-08T23:13:35.269Z,100929.09
2018-05-08T23:16:03.593Z,100923.91
2018-05-08T23:18:31.895Z,100922.55
2018-05-08T23:21:00.724Z,100918.91
2018-05-08T23:23:29.030Z,100920.58
2018-05-08T23:25:57.341Z,100924.38
2018-05-08T23:28:25.749Z,100917.43
2018-05-08T23:30:54.069Z,100917.76
2018-05-08T23:33:22.378Z,100912.38
2018-05-08T23:35:50.749Z,100915.59
2018-05-08T23:38:21.136Z,100918.88
2018-05-08T23:40:49.668Z,100915.59
2018-05-08T23:43:18.038Z,100917.12
2018-05-08T23:45:46.378Z,100910.16
2018-05-08T23:48:14.703Z,100912.45
2018-05-08T23:50:43.066Z,100911.92
2018-05-08T23:53:12.173Z,100907.98
2018-05-08T23:55:40.653Z,100908.48
2018-05-08T23:58:09.017Z,100908.66
